sensor_id;sensor_type;location;lat;lon;timestamp;temperature;humidity
108;DHT22;49;48.530;9.200;2023-11-18T00:00:01;10.40;1.00
108;DHT22;49;48.530;9.200;2023-11-18T00:02:29;10.60;1.00
108;DHT22;49;48.530;9.200;2023-11-18T00:04:59;10.50;1.00
108;DHT22;49;48.530;9.200;2023-11-18T00:07:26;10.30;1.00
108;DHT22;49;48.530;9.200;2023-11-18T00:09:53;10.20;1.00
108;DHT22;49;48.530;9.200;2023-11-18T00:12:20;10.00;1.00
108;DHT22;49;48.530;9.200;2023-11-18T00:14:48;9.90;1.00
108;DHT22;49;48.530;9.200;2023-11-18T00:17:15;9.90;1.00
108;DHT22;49;48.530;9.200;2023-11-18T00:19:43;9.60;1.00
108;DHT22;49;48.530;9.200;2023-11-18T00:22:10;9.70;1.00
108;DHT22;49;48.530;9.200;2023-11-18T00:27:05;10.10;1.00
108;DHT22;49;48.530;9.200;2023-11-18T00:29:34;10.30;1.00
108;DHT22;49;48.530;9.200;2023-11-18T00:32:05;10.40;1.00
108;DHT22;49;48.530;9.200;2023-11-18T00:34:32;10.40;1.00
108;DHT22;49;48.530;9.200;2023-11-18T00:36:59;10.40;1.00
108;DHT22;49;48.530;9.200;2023-11-18T00:39:26;10.30;1.00
108;DHT22;49;48.530;9.200;2023-11-18T00:41:53;10.30;1.00
108;DHT22;49;48.530;9.200;2023-11-18T00:44:21;10.50;1.00
108;DHT22;49;48.530;9.200;2023-11-18T00:49:17;10.20;1.00
108;DHT22;49;48.530;9.200;2023-11-18T00:51:44;10.30;1.00
108;DHT22;49;48.530;9.200;2023-11-18T00:54:11;10.30;1.00
108;DHT22;49;48.530;9.200;2023-11-18T00:56:38;10.30;1.00
108;DHT22;49;48.530;9.200;2023-11-18T00:59:05;10.40;1.00
108;DHT22;49;48.530;9.200;2023-11-18T01:01:33;10.50;1.00
108;DHT22;49;48.530;9.200;2023-11-18T01:04:01;10.30;1.00
108;DHT22;49;48.530;9.200;2023-11-18T01:06:29;10.40;1.00
108;DHT22;49;48.530;9.200;2023-11-18T01:08:58;10.40;1.00
108;DHT22;49;48.530;9.200;2023-11-18T01:11:25;10.30;1.00
108;DHT22;49;48.530;9.200;2023-11-18T01:13:52;10.40;1.00
108;DHT22;49;48.530;9.200;2023-11-18T01:16:20;10.50;1.00
108;DHT22;49;48.530;9.200;2023-11-18T01:18:47;10.40;1.00
108;DHT22;49;48.530;9.200;2023-11-18T01:21:14;10.40;1.00
108;DHT22;49;48.530;9.200;2023-11-18T01:23:44;10.50;1.00
108;DHT22;49;48.530;9.200;2023-11-18T01:26:11;10.50;1.00
108;DHT22;49;48.530;9.200;2023-11-18T01:28:39;10.40;1.00
108;DHT22;49;48.530;9.200;2023-11-18T01:31:08;10.20;1.00
108;DHT22;49;48.530;9.200;2023-11-18T01:33:36;10.10;1.00
108;DHT22;49;48.530;9.200;2023-11-18T01:36:06;10.20;1.00
108;DHT22;49;48.530;9.200;2023-11-18T01:38:34;10.20;1.00
108;DHT22;49;48.530;9.200;2023-11-18T01:41:05;10.00;1.00
108;DHT22;49;48.530;9.200;2023-11-18T01:43:32;10.20;1.00
108;DHT22;49;48.530;9.200;2023-11-18T01:45:59;10.40;1.00
108;DHT22;49;48.530;9.200;2023-11-18T01:48:28;10.50;1.00
108;DHT22;49;48.530;9.200;2023-11-18T01:50:56;10.50;1.00
108;DHT22;49;48.530;9.200;2023-11-18T01:55:53;10.30;1.00
108;DHT22;49;48.530;9.200;2023-11-18T01:58:22;10.50;1.00
108;DHT22;49;48.530;9.200;2023-11-18T02:00:51;10.50;1.00
108;DHT22;49;48.530;9.200;2023-11-18T02:03:20;10.20;1.00
108;DHT22;49;48.530;9.200;2023-11-18T02:05:47;10.00;1.00
108;DHT22;49;48.530;9.200;2023-11-18T02:08:15;9.80;1.00
108;DHT22;49;48.530;9.200;2023-11-18T02:10:48;9.90;1.00
108;DHT22;49;48.530;9.200;2023-11-18T02:13:23;9.90;1.00
108;DHT22;49;48.530;9.200;2023-11-18T02:15:53;9.90;1.00
108;DHT22;49;48.530;9.200;2023-11-18T02:18:24;10.10;1.00
108;DHT22;49;48.530;9.200;2023-11-18T02:20:53;10.30;1.00
108;DHT22;49;48.530;9.200;2023-11-18T02:23:23;10.20;1.00
108;DHT22;49;48.530;9.200;2023-11-18T02:25:53;10.20;1.00
108;DHT22;49;48.530;9.200;2023-11-18T02:28:21;10.20;1.00
108;DHT22;49;48.530;9.200;2023-11-18T02:30:50;10.30;1.00
108;DHT22;49;48.530;9.200;2023-11-18T02:33:27;10.40;1.00
108;DHT22;49;48.530;9.200;2023-11-18T02:36:05;10.50;1.00
108;DHT22;49;48.530;9.200;2023-11-18T02:38:39;10.40;1.00
108;DHT22;49;48.530;9.200;2023-11-18T02:41:13;10.50;1.00
108;DHT22;49;48.530;9.200;2023-11-18T02:43:41;10.50;1.00
108;DHT22;49;48.530;9.200;2023-11-18T02:46:11;10.50;1.00
108;DHT22;49;48.530;9.200;2023-11-18T02:48:39;10.40;1.00
108;DHT22;49;48.530;9.200;2023-11-18T02:51:07;10.50;1.00
108;DHT22;49;48.530;9.200;2023-11-18T02:53:34;10.40;1.00
108;DHT22;49;48.530;9.200;2023-11-18T02:56:01;10.40;1.00
108;DHT22;49;48.530;9.200;2023-11-18T02:58:31;10.40;1.00
108;DHT22;49;48.530;9.200;2023-11-18T03:00:58;10.20;1.00
108;DHT22;49;48.530;9.200;2023-11-18T03:03:26;10.00;1.00
108;DHT22;49;48.530;9.200;2023-11-18T03:05:53;9.90;1.00
108;DHT22;49;48.530;9.200;2023-11-18T03:08:20;9.90;1.00
108;DHT22;49;48.530;9.200;2023-11-18T03:10:47;9.90;1.00
108;DHT22;49;48.530;9.200;2023-11-18T03:13:18;9.80;1.00
108;DHT22;49;48.530;9.200;2023-11-18T03:15:46;9.60;1.00
108;DHT22;49;48.530;9.200;2023-11-18T03:18:14;9.60;1.00
108;DHT22;49;48.530;9.200;2023-11-18T03:20:41;9.50;1.00
108;DHT22;49;48.530;9.200;2023-11-18T03:23:08;9.50;1.00
108;DHT22;49;48.530;9.200;2023-11-18T03:25:35;9.40;1.00
108;DHT22;49;48.530;9.200;2023-11-18T03:28:03;9.40;1.00
108;DHT22;49;48.530;9.200;2023-11-18T03:30:31;9.40;1.00
108;DHT22;49;48.530;9.200;2023-11-18T03:33:00;9.30;1.00
108;DHT22;49;48.530;9.200;2023-11-18T03:35:27;9.20;1.00
108;DHT22;49;48.530;9.200;2023-11-18T03:37:54;9.30;1.00
108;DHT22;49;48.530;9.200;2023-11-18T03:40:21;9.30;1.00
108;DHT22;49;48.530;9.200;2023-11-18T03:42:47;9.30;1.00
108;DHT22;49;48.530;9.200;2023-11-18T03:45:14;9.20;1.00
108;DHT22;49;48.530;9.200;2023-11-18T03:47:43;9.20;1.00
108;DHT22;49;48.530;9.200;2023-11-18T03:50:12;9.20;1.00
108;DHT22;49;48.530;9.200;2023-11-18T03:52:39;9.20;1.00
108;DHT22;49;48.530;9.200;2023-11-18T03:55:07;9.20;1.00
108;DHT22;49;48.530;9.200;2023-11-18T03:57:34;9.30;1.00
108;DHT22;49;48.530;9.200;2023-11-18T04:00:02;9.30;1.00
108;DHT22;49;48.530;9.200;2023-11-18T04:02:29;9.10;1.00
108;DHT22;49;48.530;9.200;2023-11-18T04:04:56;9.00;1.00
108;DHT22;49;48.530;9.200;2023-11-18T04:07:24;9.00;1.00
108;DHT22;49;48.530;9.200;2023-11-18T04:09:50;9.00;1.00
108;DHT22;49;48.530;9.200;2023-11-18T04:12:17;9.10;1.00
108;DHT22;49;48.530;9.200;2023-11-18T04:14:44;9.00;1.00
108;DHT22;49;48.530;9.200;2023-11-18T04:17:11;9.20;1.00
108;DHT22;49;48.530;9.200;2023-11-18T04:19:38;9.10;1.00
108;DHT22;49;48.530;9.200;2023-11-18T04:22:05;9.20;1.00
108;DHT22;49;48.530;9.200;2023-11-18T04:24:33;9.20;1.00
108;DHT22;49;48.530;9.200;2023-11-18T04:27:01;9.30;1.00
108;DHT22;49;48.530;9.200;2023-11-18T04:29:27;9.30;1.00
108;DHT22;49;48.530;9.200;2023-11-18T04:31:54;9.50;1.00
108;DHT22;49;48.530;9.200;2023-11-18T04:34:21;9.50;1.00
108;DHT22;49;48.530;9.200;2023-11-18T04:36:48;9.40;1.00
108;DHT22;49;48.530;9.200;2023-11-18T04:39:16;9.60;1.00
108;DHT22;49;48.530;9.200;2023-11-18T04:41:44;9.60;1.00
108;DHT22;49;48.530;9.200;2023-11-18T04:44:11;9.60;1.00
108;DHT22;49;48.530;9.200;2023-11-18T04:46:39;9.70;1.00
108;DHT22;49;48.530;9.200;2023-11-18T04:49:06;9.70;1.00
108;DHT22;49;48.530;9.200;2023-11-18T04:51:33;9.60;1.00
108;DHT22;49;48.530;9.200;2023-11-18T04:54:00;9.40;1.00
108;DHT22;49;48.530;9.200;2023-11-18T04:56:29;9.20;1.00
108;DHT22;49;48.530;9.200;2023-11-18T04:58:57;8.90;1.00
108;DHT22;49;48.530;9.200;2023-11-18T05:01:24;8.80;1.00
108;DHT22;49;48.530;9.200;2023-11-18T05:03:51;8.90;1.00
108;DHT22;49;48.530;9.200;2023-11-18T05:06:18;9.00;1.00
108;DHT22;49;48.530;9.200;2023-11-18T05:08:45;9.10;1.00
108;DHT22;49;48.530;9.200;2023-11-18T05:11:12;9.10;1.00
108;DHT22;49;48.530;9.200;2023-11-18T05:13:39;9.40;1.00
108;DHT22;49;48.530;9.200;2023-11-18T05:16:08;9.20;1.00
108;DHT22;49;48.530;9.200;2023-11-18T05:18:36;9.30;1.00
108;DHT22;49;48.530;9.200;2023-11-18T05:21:05;9.20;1.00
108;DHT22;49;48.530;9.200;2023-11-18T05:23:34;9.00;1.00
108;DHT22;49;48.530;9.200;2023-11-18T05:26:01;9.10;1.00
108;DHT22;49;48.530;9.200;2023-11-18T05:28:30;9.10;1.00
108;DHT22;49;48.530;9.200;2023-11-18T05:30:57;9.10;1.00
108;DHT22;49;48.530;9.200;2023-11-18T05:33:28;9.10;1.00
108;DHT22;49;48.530;9.200;2023-11-18T05:35:55;9.20;1.00
108;DHT22;49;48.530;9.200;2023-11-18T05:38:23;9.30;1.00
108;DHT22;49;48.530;9.200;2023-11-18T05:40:57;9.30;1.00
108;DHT22;49;48.530;9.200;2023-11-18T05:43:28;9.50;1.00
108;DHT22;49;48.530;9.200;2023-11-18T05:46:01;9.70;1.00
108;DHT22;49;48.530;9.200;2023-11-18T05:48:47;9.50;1.00
108;DHT22;49;48.530;9.200;2023-11-18T05:51:19;9.70;1.00
108;DHT22;49;48.530;9.200;2023-11-18T05:53:46;9.60;1.00
108;DHT22;49;48.530;9.200;2023-11-18T05:56:14;9.60;1.00
108;DHT22;49;48.530;9.200;2023-11-18T05:58:42;9.10;1.00
108;DHT22;49;48.530;9.200;2023-11-18T06:01:10;9.00;1.00
108;DHT22;49;48.530;9.200;2023-11-18T06:03:39;9.20;1.00
108;DHT22;49;48.530;9.200;2023-11-18T06:06:09;9.20;1.00
108;DHT22;49;48.530;9.200;2023-11-18T06:08:37;9.20;1.00
108;DHT22;49;48.530;9.200;2023-11-18T06:11:06;9.30;1.00
108;DHT22;49;48.530;9.200;2023-11-18T06:13:39;9.40;1.00
108;DHT22;49;48.530;9.200;2023-11-18T06:16:09;9.50;1.00
108;DHT22;49;48.530;9.200;2023-11-18T06:18:40;9.50;1.00
108;DHT22;49;48.530;9.200;2023-11-18T06:21:12;9.40;1.00
108;DHT22;49;48.530;9.200;2023-11-18T06:23:40;9.60;1.00
108;DHT22;49;48.530;9.200;2023-11-18T06:26:08;9.50;1.00
108;DHT22;49;48.530;9.200;2023-11-18T06:28:38;9.70;1.00
108;DHT22;49;48.530;9.200;2023-11-18T06:31:06;9.70;1.00
108;DHT22;49;48.530;9.200;2023-11-18T06:33:37;9.60;1.00
108;DHT22;49;48.530;9.200;2023-11-18T06:36:06;9.50;1.00
108;DHT22;49;48.530;9.200;2023-11-18T06:38:35;9.50;1.00
108;DHT22;49;48.530;9.200;2023-11-18T06:41:02;9.60;1.00
108;DHT22;49;48.530;9.200;2023-11-18T06:43:31;9.70;1.00
108;DHT22;49;48.530;9.200;2023-11-18T06:46:15;9.50;1.00
108;DHT22;49;48.530;9.200;2023-11-18T06:48:41;9.70;1.00
108;DHT22;49;48.530;9.200;2023-11-18T06:51:08;9.70;1.00
108;DHT22;49;48.530;9.200;2023-11-18T06:53:36;9.70;1.00
108;DHT22;49;48.530;9.200;2023-11-18T06:56:04;9.70;1.00
108;DHT22;49;48.530;9.200;2023-11-18T06:58:31;9.80;1.00
108;DHT22;49;48.530;9.200;2023-11-18T07:00:58;9.60;1.00
108;DHT22;49;48.530;9.200;2023-11-18T07:03:25;9.50;1.00
108;DHT22;49;48.530;9.200;2023-11-18T07:05:51;9.30;1.00
108;DHT22;49;48.530;9.200;2023-11-18T07:08:18;9.40;1.00
108;DHT22;49;48.530;9.200;2023-11-18T07:10:46;9.40;1.00
108;DHT22;49;48.530;9.200;2023-11-18T07:13:14;9.30;1.00
108;DHT22;49;48.530;9.200;2023-11-18T07:15:41;9.20;1.00
108;DHT22;49;48.530;9.200;2023-11-18T07:18:10;9.30;1.00
108;DHT22;49;48.530;9.200;2023-11-18T07:20:37;9.40;1.00
108;DHT22;49;48.530;9.200;2023-11-18T07:23:04;9.50;1.00
108;DHT22;49;48.530;9.200;2023-11-18T07:25:31;9.60;1.00
108;DHT22;49;48.530;9.200;2023-11-18T07:28:01;9.60;1.00
108;DHT22;49;48.530;9.200;2023-11-18T07:30:28;9.60;1.00
108;DHT22;49;48.530;9.200;2023-11-18T07:32:55;9.90;1.00
108;DHT22;49;48.530;9.200;2023-11-18T07:35:24;10.10;1.00
108;DHT22;49;48.530;9.200;2023-11-18T07:37:52;10.10;1.00
108;DHT22;49;48.530;9.200;2023-11-18T07:40:19;10.10;1.00
108;DHT22;49;48.530;9.200;2023-11-18T07:42:53;10.20;1.00
108;DHT22;49;48.530;9.200;2023-11-18T07:45:22;10.30;1.00
108;DHT22;49;48.530;9.200;2023-11-18T07:47:49;10.30;1.00
108;DHT22;49;48.530;9.200;2023-11-18T07:50:17;10.30;1.00
108;DHT22;49;48.530;9.200;2023-11-18T07:52:45;10.40;1.00
108;DHT22;49;48.530;9.200;2023-11-18T07:55:12;10.50;1.00
108;DHT22;49;48.530;9.200;2023-11-18T07:57:39;10.60;1.00
108;DHT22;49;48.530;9.200;2023-11-18T08:00:07;10.70;1.00
108;DHT22;49;48.530;9.200;2023-11-18T08:02:37;10.60;1.00
108;DHT22;49;48.530;9.200;2023-11-18T08:05:04;10.80;1.00
108;DHT22;49;48.530;9.200;2023-11-18T08:07:33;10.90;1.00
108;DHT22;49;48.530;9.200;2023-11-18T08:10:00;10.90;1.00
108;DHT22;49;48.530;9.200;2023-11-18T08:12:29;10.80;1.00
108;DHT22;49;48.530;9.200;2023-11-18T08:14:56;10.90;1.00
108;DHT22;49;48.530;9.200;2023-11-18T08:17:23;11.00;1.00
108;DHT22;49;48.530;9.200;2023-11-18T08:19:53;11.00;1.00
108;DHT22;49;48.530;9.200;2023-11-18T08:22:19;11.00;1.00
108;DHT22;49;48.530;9.200;2023-11-18T08:24:48;11.00;1.00
108;DHT22;49;48.530;9.200;2023-11-18T08:27:15;11.10;1.00
108;DHT22;49;48.530;9.200;2023-11-18T08:29:42;11.00;1.00
108;DHT22;49;48.530;9.200;2023-11-18T08:32:09;10.90;1.00
108;DHT22;49;48.530;9.200;2023-11-18T08:34:36;10.70;1.00
108;DHT22;49;48.530;9.200;2023-11-18T08:37:05;10.90;1.00
108;DHT22;49;48.530;9.200;2023-11-18T08:39:32;11.10;1.00
108;DHT22;49;48.530;9.200;2023-11-18T08:41:58;10.70;1.00
108;DHT22;49;48.530;9.200;2023-11-18T08:44:26;10.60;1.00
108;DHT22;49;48.530;9.200;2023-11-18T08:46:53;10.80;1.00
108;DHT22;49;48.530;9.200;2023-11-18T08:49:23;11.00;1.00
108;DHT22;49;48.530;9.200;2023-11-18T08:51:51;10.90;1.00
108;DHT22;49;48.530;9.200;2023-11-18T08:54:22;11.00;1.00
108;DHT22;49;48.530;9.200;2023-11-18T08:56:51;11.10;1.00
108;DHT22;49;48.530;9.200;2023-11-18T08:59:18;11.30;1.00
108;DHT22;49;48.530;9.200;2023-11-18T09:01:50;11.30;1.00
108;DHT22;49;48.530;9.200;2023-11-18T09:04:21;11.30;1.00
108;DHT22;49;48.530;9.200;2023-11-18T09:06:49;11.30;1.00
108;DHT22;49;48.530;9.200;2023-11-18T09:09:17;11.50;1.00
108;DHT22;49;48.530;9.200;2023-11-18T09:11:54;11.60;1.00
108;DHT22;49;48.530;9.200;2023-11-18T09:14:24;11.80;1.00
108;DHT22;49;48.530;9.200;2023-11-18T09:16:51;11.90;1.00
108;DHT22;49;48.530;9.200;2023-11-18T09:19:21;12.00;1.00
108;DHT22;49;48.530;9.200;2023-11-18T09:21:50;11.80;1.00
108;DHT22;49;48.530;9.200;2023-11-18T09:26:58;11.80;1.00
108;DHT22;49;48.530;9.200;2023-11-18T09:29:28;11.80;1.00
108;DHT22;49;48.530;9.200;2023-11-18T09:31:58;11.90;1.00
108;DHT22;49;48.530;9.200;2023-11-18T09:34:25;12.00;1.00
108;DHT22;49;48.530;9.200;2023-11-18T09:36:58;12.20;1.00
108;DHT22;49;48.530;9.200;2023-11-18T09:39:25;12.20;1.00
108;DHT22;49;48.530;9.200;2023-11-18T09:52:33;12.30;1.00
108;DHT22;49;48.530;9.200;2023-11-18T09:55:16;12.60;1.00
108;DHT22;49;48.530;9.200;2023-11-18T09:57:53;13.00;1.00
108;DHT22;49;48.530;9.200;2023-11-18T10:00:25;12.70;1.00
108;DHT22;49;48.530;9.200;2023-11-18T10:02:53;12.80;1.00
108;DHT22;49;48.530;9.200;2023-11-18T10:05:23;13.00;1.00
108;DHT22;49;48.530;9.200;2023-11-18T10:07:54;12.90;1.00
108;DHT22;49;48.530;9.200;2023-11-18T10:10:22;12.70;1.00
108;DHT22;49;48.530;9.200;2023-11-18T10:12:52;12.70;1.00
108;DHT22;49;48.530;9.200;2023-11-18T10:15:24;12.80;1.00
108;DHT22;49;48.530;9.200;2023-11-18T10:17:52;12.90;1.00
108;DHT22;49;48.530;9.200;2023-11-18T10:20:44;13.00;1.00
108;DHT22;49;48.530;9.200;2023-11-18T10:23:13;13.20;1.00
108;DHT22;49;48.530;9.200;2023-11-18T10:25:46;13.40;1.00
108;DHT22;49;48.530;9.200;2023-11-18T10:28:23;13.30;1.00
108;DHT22;49;48.530;9.200;2023-11-18T10:30:53;13.40;1.00
108;DHT22;49;48.530;9.200;2023-11-18T10:35:49;13.70;1.00
108;DHT22;49;48.530;9.200;2023-11-18T10:38:19;13.50;1.00
108;DHT22;49;48.530;9.200;2023-11-18T10:40:47;13.40;1.00
108;DHT22;49;48.530;9.200;2023-11-18T10:43:14;13.50;1.00
108;DHT22;49;48.530;9.200;2023-11-18T10:45:42;13.50;1.00
108;DHT22;49;48.530;9.200;2023-11-18T10:48:12;13.60;1.00
108;DHT22;49;48.530;9.200;2023-11-18T10:50:42;13.60;1.00
108;DHT22;49;48.530;9.200;2023-11-18T10:53:09;13.60;1.00
108;DHT22;49;48.530;9.200;2023-11-18T10:55:40;13.70;1.00
108;DHT22;49;48.530;9.200;2023-11-18T10:58:07;13.70;1.00
108;DHT22;49;48.530;9.200;2023-11-18T11:00:46;13.80;1.00
108;DHT22;49;48.530;9.200;2023-11-18T11:03:14;13.60;1.00
108;DHT22;49;48.530;9.200;2023-11-18T11:05:41;13.80;1.00
108;DHT22;49;48.530;9.200;2023-11-18T11:08:09;13.90;1.00
108;DHT22;49;48.530;9.200;2023-11-18T11:10:40;13.90;1.00
108;DHT22;49;48.530;9.200;2023-11-18T11:13:09;13.80;1.00
108;DHT22;49;48.530;9.200;2023-11-18T11:18:08;13.30;1.00
108;DHT22;49;48.530;9.200;2023-11-18T11:20:42;13.40;1.00
108;DHT22;49;48.530;9.200;2023-11-18T11:23:20;13.40;1.00
108;DHT22;49;48.530;9.200;2023-11-18T11:25:59;13.70;1.00
108;DHT22;49;48.530;9.200;2023-11-18T11:28:37;13.70;1.00
108;DHT22;49;48.530;9.200;2023-11-18T11:31:12;13.70;1.00
108;DHT22;49;48.530;9.200;2023-11-18T11:33:49;13.90;1.00
108;DHT22;49;48.530;9.200;2023-11-18T11:36:21;13.80;1.00
108;DHT22;49;48.530;9.200;2023-11-18T11:38:53;13.90;1.00
108;DHT22;49;48.530;9.200;2023-11-18T11:41:23;13.90;1.00
108;DHT22;49;48.530;9.200;2023-11-18T11:43:53;14.00;1.00
108;DHT22;49;48.530;9.200;2023-11-18T11:46:25;13.70;1.00
108;DHT22;49;48.530;9.200;2023-11-18T11:49:00;13.50;1.00
108;DHT22;49;48.530;9.200;2023-11-18T11:51:42;13.60;1.00
108;DHT22;49;48.530;9.200;2023-11-18T11:54:20;13.70;1.00
108;DHT22;49;48.530;9.200;2023-11-18T11:56:49;13.90;1.00
108;DHT22;49;48.530;9.200;2023-11-18T11:59:34;13.70;1.00
108;DHT22;49;48.530;9.200;2023-11-18T12:02:03;13.50;1.00
108;DHT22;49;48.530;9.200;2023-11-18T12:04:34;13.40;1.00
108;DHT22;49;48.530;9.200;2023-11-18T12:07:05;13.80;1.00
108;DHT22;49;48.530;9.200;2023-11-18T12:09:35;13.70;1.00
108;DHT22;49;48.530;9.200;2023-11-18T12:12:14;13.60;1.00
108;DHT22;49;48.530;9.200;2023-11-18T12:14:51;13.30;1.00
108;DHT22;49;48.530;9.200;2023-11-18T12:17:22;13.60;1.00
108;DHT22;49;48.530;9.200;2023-11-18T12:19:50;13.70;1.00
108;DHT22;49;48.530;9.200;2023-11-18T12:22:24;13.80;1.00
108;DHT22;49;48.530;9.200;2023-11-18T12:28:07;14.00;1.00
108;DHT22;49;48.530;9.200;2023-11-18T12:30:44;13.70;1.00
108;DHT22;49;48.530;9.200;2023-11-18T12:34:00;13.70;1.00
108;DHT22;49;48.530;9.200;2023-11-18T12:36:52;13.90;1.00
108;DHT22;49;48.530;9.200;2023-11-18T12:39:59;14.30;1.00
108;DHT22;49;48.530;9.200;2023-11-18T12:43:00;14.40;1.00
108;DHT22;49;48.530;9.200;2023-11-18T12:45:51;14.30;1.00
108;DHT22;49;48.530;9.200;2023-11-18T12:48:29;14.20;1.00
108;DHT22;49;48.530;9.200;2023-11-18T12:53:27;13.90;1.00
108;DHT22;49;48.530;9.200;2023-11-18T12:55:57;13.90;1.00
108;DHT22;49;48.530;9.200;2023-11-18T12:58:27;14.00;1.00
108;DHT22;49;48.530;9.200;2023-11-18T13:03:29;14.00;1.00
108;DHT22;49;48.530;9.200;2023-11-18T13:05:56;14.20;1.00
108;DHT22;49;48.530;9.200;2023-11-18T13:08:23;14.20;1.00
108;DHT22;49;48.530;9.200;2023-11-18T13:10:52;14.40;1.00
108;DHT22;49;48.530;9.200;2023-11-18T13:13:19;14.50;1.00
108;DHT22;49;48.530;9.200;2023-11-18T13:15:51;14.30;1.00
108;DHT22;49;48.530;9.200;2023-11-18T13:20:54;13.70;1.00
108;DHT22;49;48.530;9.200;2023-11-18T13:23:25;13.70;1.00
108;DHT22;49;48.530;9.200;2023-11-18T13:25:55;13.40;1.00
108;DHT22;49;48.530;9.200;2023-11-18T13:28:22;13.40;1.00
108;DHT22;49;48.530;9.200;2023-11-18T13:33:25;13.30;1.00
108;DHT22;49;48.530;9.200;2023-11-18T13:35:52;13.50;1.00
108;DHT22;49;48.530;9.200;2023-11-18T13:38:20;13.50;1.00
108;DHT22;49;48.530;9.200;2023-11-18T13:40:47;13.20;1.00
108;DHT22;49;48.530;9.200;2023-11-18T13:43:15;13.10;1.00
108;DHT22;49;48.530;9.200;2023-11-18T13:45:42;13.10;1.00
108;DHT22;49;48.530;9.200;2023-11-18T13:48:11;12.80;1.00
108;DHT22;49;48.530;9.200;2023-11-18T13:50:42;12.80;1.00
108;DHT22;49;48.530;9.200;2023-11-18T13:53:09;12.70;1.00
108;DHT22;49;48.530;9.200;2023-11-18T13:55:36;12.70;1.00
108;DHT22;49;48.530;9.200;2023-11-18T13:58:05;12.90;1.00
108;DHT22;49;48.530;9.200;2023-11-18T14:00:40;12.70;1.00
108;DHT22;49;48.530;9.200;2023-11-18T14:03:09;12.30;1.00
108;DHT22;49;48.530;9.200;2023-11-18T14:05:37;12.30;1.00
108;DHT22;49;48.530;9.200;2023-11-18T14:08:06;12.10;1.00
108;DHT22;49;48.530;9.200;2023-11-18T14:10:35;12.40;1.00
108;DHT22;49;48.530;9.200;2023-11-18T14:13:05;12.50;1.00
108;DHT22;49;48.530;9.200;2023-11-18T14:15:35;12.40;1.00
108;DHT22;49;48.530;9.200;2023-11-18T14:18:02;12.50;1.00
108;DHT22;49;48.530;9.200;2023-11-18T14:20:29;12.60;1.00
108;DHT22;49;48.530;9.200;2023-11-18T14:22:57;12.70;1.00
108;DHT22;49;48.530;9.200;2023-11-18T14:25:25;12.80;1.00
108;DHT22;49;48.530;9.200;2023-11-18T14:27:53;12.90;1.00
108;DHT22;49;48.530;9.200;2023-11-18T14:30:20;13.00;1.00
108;DHT22;49;48.530;9.200;2023-11-18T14:32:49;13.10;1.00
108;DHT22;49;48.530;9.200;2023-11-18T14:40:15;13.10;1.00
108;DHT22;49;48.530;9.200;2023-11-18T14:42:46;13.00;1.00
108;DHT22;49;48.530;9.200;2023-11-18T14:47:42;12.80;1.00
108;DHT22;49;48.530;9.200;2023-11-18T14:52:38;12.80;1.00
108;DHT22;49;48.530;9.200;2023-11-18T14:55:06;12.70;1.00
108;DHT22;49;48.530;9.200;2023-11-18T14:57:37;12.60;1.00
108;DHT22;49;48.530;9.200;2023-11-18T15:00:07;12.60;1.00
108;DHT22;49;48.530;9.200;2023-11-18T15:02:35;12.40;1.00
108;DHT22;49;48.530;9.200;2023-11-18T15:05:03;12.40;1.00
108;DHT22;49;48.530;9.200;2023-11-18T15:07:30;12.50;1.00
108;DHT22;49;48.530;9.200;2023-11-18T15:09:57;12.40;1.00
108;DHT22;49;48.530;9.200;2023-11-18T15:12:24;12.40;1.00
108;DHT22;49;48.530;9.200;2023-11-18T15:14:51;12.40;1.00
108;DHT22;49;48.530;9.200;2023-11-18T15:19:47;11.90;1.00
108;DHT22;49;48.530;9.200;2023-11-18T15:27:31;11.50;1.00
108;DHT22;49;48.530;9.200;2023-11-18T15:29:58;11.40;1.00
108;DHT22;49;48.530;9.200;2023-11-18T15:32:27;11.50;1.00
108;DHT22;49;48.530;9.200;2023-11-18T15:34:55;11.40;1.00
108;DHT22;49;48.530;9.200;2023-11-18T15:37:23;11.60;1.00
108;DHT22;49;48.530;9.200;2023-11-18T15:39:50;11.60;1.00
108;DHT22;49;48.530;9.200;2023-11-18T15:44:45;11.80;1.00
108;DHT22;49;48.530;9.200;2023-11-18T15:47:12;11.80;1.00
108;DHT22;49;48.530;9.200;2023-11-18T15:49:40;12.00;1.00
108;DHT22;49;48.530;9.200;2023-11-18T15:52:09;11.90;1.00
108;DHT22;49;48.530;9.200;2023-11-18T15:54:37;11.90;1.00
108;DHT22;49;48.530;9.200;2023-11-18T15:57:04;11.90;1.00
108;DHT22;49;48.530;9.200;2023-11-18T16:02:05;11.60;1.00
108;DHT22;49;48.530;9.200;2023-11-18T16:04:33;11.80;1.00
108;DHT22;49;48.530;9.200;2023-11-18T16:07:00;11.90;1.00
108;DHT22;49;48.530;9.200;2023-11-18T16:09:28;12.00;1.00
108;DHT22;49;48.530;9.200;2023-11-18T16:11:55;12.10;1.00
108;DHT22;49;48.530;9.200;2023-11-18T16:14:23;11.90;1.00
108;DHT22;49;48.530;9.200;2023-11-18T16:16:50;12.00;1.00
108;DHT22;49;48.530;9.200;2023-11-18T16:19:17;12.10;1.00
108;DHT22;49;48.530;9.200;2023-11-18T16:21:47;12.00;1.00
108;DHT22;49;48.530;9.200;2023-11-18T16:26:43;11.50;1.00
108;DHT22;49;48.530;9.200;2023-11-18T16:29:11;11.60;1.00
108;DHT22;49;48.530;9.200;2023-11-18T16:31:40;11.90;1.00
108;DHT22;49;48.530;9.200;2023-11-18T16:34:06;11.90;1.00
108;DHT22;49;48.530;9.200;2023-11-18T16:41:40;12.20;1.00
108;DHT22;49;48.530;9.200;2023-11-18T16:44:09;12.40;1.00
108;DHT22;49;48.530;9.200;2023-11-18T16:49:05;12.20;1.00
108;DHT22;49;48.530;9.200;2023-11-18T16:51:32;12.00;1.00
108;DHT22;49;48.530;9.200;2023-11-18T16:54:00;12.10;1.00
108;DHT22;49;48.530;9.200;2023-11-18T16:56:28;11.80;1.00
108;DHT22;49;48.530;9.200;2023-11-18T17:03:52;12.10;1.00
108;DHT22;49;48.530;9.200;2023-11-18T17:08:47;12.40;1.00
108;DHT22;49;48.530;9.200;2023-11-18T17:13:42;12.60;1.00
108;DHT22;49;48.530;9.200;2023-11-18T17:16:09;12.20;1.00
108;DHT22;49;48.530;9.200;2023-11-18T17:18:36;12.00;1.00
108;DHT22;49;48.530;9.200;2023-11-18T17:21:05;12.00;1.00
108;DHT22;49;48.530;9.200;2023-11-18T17:26:02;12.00;1.00
108;DHT22;49;48.530;9.200;2023-11-18T17:30:59;11.70;1.00
108;DHT22;49;48.530;9.200;2023-11-18T17:35:53;12.10;1.00
108;DHT22;49;48.530;9.200;2023-11-18T17:55:44;11.60;1.00
108;DHT22;49;48.530;9.200;2023-11-18T18:03:18;11.80;1.00
108;DHT22;49;48.530;9.200;2023-11-18T18:08:15;11.50;1.00
108;DHT22;49;48.530;9.200;2023-11-18T18:10:43;11.50;1.00
108;DHT22;49;48.530;9.200;2023-11-18T18:20:44;11.30;1.00
108;DHT22;49;48.530;9.200;2023-11-18T18:25:59;11.50;1.00
108;DHT22;49;48.530;9.200;2023-11-18T18:28:26;11.80;1.00
108;DHT22;49;48.530;9.200;2023-11-18T18:35:49;12.10;1.00
108;DHT22;49;48.530;9.200;2023-11-18T18:40:44;12.00;1.00
108;DHT22;49;48.530;9.200;2023-11-18T18:43:13;11.80;1.00
108;DHT22;49;48.530;9.200;2023-11-18T18:45:40;11.80;1.00
108;DHT22;49;48.530;9.200;2023-11-18T18:48:07;11.70;1.00
108;DHT22;49;48.530;9.200;2023-11-18T19:03:02;11.50;1.00
108;DHT22;49;48.530;9.200;2023-11-18T19:05:29;11.50;1.00
108;DHT22;49;48.530;9.200;2023-11-18T19:07:56;11.40;1.00
108;DHT22;49;48.530;9.200;2023-11-18T19:12:51;11.30;1.00
108;DHT22;49;48.530;9.200;2023-11-18T19:17:47;11.60;1.00
108;DHT22;49;48.530;9.200;2023-11-18T19:20:17;11.60;1.00
108;DHT22;49;48.530;9.200;2023-11-18T19:22:45;11.60;1.00
108;DHT22;49;48.530;9.200;2023-11-18T19:25:12;11.40;1.00
108;DHT22;49;48.530;9.200;2023-11-18T19:30:12;11.30;1.00
108;DHT22;49;48.530;9.200;2023-11-18T19:32:39;11.20;1.00
108;DHT22;49;48.530;9.200;2023-11-18T19:35:06;11.00;1.00
108;DHT22;49;48.530;9.200;2023-11-18T19:37:35;11.20;1.00
108;DHT22;49;48.530;9.200;2023-11-18T19:40:03;11.50;1.00
108;DHT22;49;48.530;9.200;2023-11-18T19:42:31;11.60;1.00
108;DHT22;49;48.530;9.200;2023-11-18T19:44:58;11.70;1.00
108;DHT22;49;48.530;9.200;2023-11-18T19:47:25;11.90;1.00
108;DHT22;49;48.530;9.200;2023-11-18T19:49:54;12.00;1.00
108;DHT22;49;48.530;9.200;2023-11-18T19:52:23;11.90;1.00
108;DHT22;49;48.530;9.200;2023-11-18T19:54:51;12.10;1.00
108;DHT22;49;48.530;9.200;2023-11-18T19:57:18;12.00;1.00